createdAt,value
2022-12-03T00:02:16.205Z,-3.48
2022-12-03T00:04:44.762Z,-3.49
2022-12-03T00:07:27.435Z,-3.50
2022-12-03T00:09:55.853Z,-3.51
2022-12-03T00:12:24.150Z,-3.52
2022-12-03T00:14:52.978Z,-3.51
2022-12-03T00:17:21.337Z,-3.49
2022-12-03T00:19:50.431Z,-3.47
2022-12-03T00:22:18.758Z,-3.45
2022-12-03T00:24:47.220Z,-3.46
2022-12-03T00:27:15.544Z,-3.49
2022-12-03T00:29:43.905Z,-3.53
2022-12-03T00:32:12.556Z,-3.54
2022-12-03T00:34:41.026Z,-3.58
2022-12-03T00:37:09.378Z,-3.63
2022-12-03T00:39:37.650Z,-3.66
2022-12-03T00:42:06.134Z,-3.64
2022-12-03T00:44:34.452Z,-3.66
2022-12-03T00:47:02.975Z,-3.70
2022-12-03T00:49:31.438Z,-3.71
2022-12-03T00:51:59.789Z,-3.73
2022-12-03T00:54:31.867Z,-3.73
2022-12-03T00:57:00.768Z,-3.74
2022-12-03T00:59:29.173Z,-3.71
2022-12-03T01:01:57.460Z,-3.72
2022-12-03T01:04:26.183Z,-3.73
2022-12-03T01:06:54.564Z,-3.75
2022-12-03T01:09:22.965Z,-3.76
2022-12-03T01:11:51.236Z,-3.72
2022-12-03T01:14:20.519Z,-3.68
2022-12-03T01:16:49.221Z,-3.64
2022-12-03T01:19:19.712Z,-3.65
2022-12-03T01:21:50.480Z,-3.66
2022-12-03T01:24:19.745Z,-3.66
2022-12-03T01:26:48.207Z,-3.65
2022-12-03T01:29:16.563Z,-3.67
2022-12-03T01:32:03.544Z,-3.72
2022-12-03T01:34:32.005Z,-3.70
2022-12-03T01:37:00.343Z,-3.70
2022-12-03T01:39:28.581Z,-3.75
2022-12-03T01:41:59.089Z,-3.73
2022-12-03T01:44:33.086Z,-3.70
2022-12-03T01:47:02.816Z,-3.67
2022-12-03T01:50:01.715Z,-3.66
2022-12-03T01:52:34.828Z,-3.67
2022-12-03T01:55:07.923Z,-3.67
2022-12-03T01:57:46.281Z,-3.67
2022-12-03T02:00:17.696Z,-3.69
2022-12-03T02:02:48.589Z,-3.72
2022-12-03T02:05:29.226Z,-3.74
2022-12-03T02:08:34.957Z,-3.75
2022-12-03T02:11:06.243Z,-3.73
2022-12-03T02:13:34.977Z,-3.75
2022-12-03T02:16:04.382Z,-3.77
2022-12-03T02:18:32.981Z,-3.73
2022-12-03T02:21:24.144Z,-3.69
2022-12-03T02:23:52.416Z,-3.65
2022-12-03T02:26:20.969Z,-3.68
2022-12-03T02:28:49.475Z,-3.69
2022-12-03T02:31:17.874Z,-3.68
2022-12-03T02:33:46.221Z,-3.66
2022-12-03T02:36:14.587Z,-3.66
2022-12-03T02:38:45.723Z,-3.68
2022-12-03T02:41:37.578Z,-3.66
2022-12-03T02:44:07.495Z,-3.68
2022-12-03T02:46:36.724Z,-3.69
2022-12-03T02:49:06.469Z,-3.64
2022-12-03T02:51:35.318Z,-3.63
2022-12-03T02:54:04.306Z,-3.61
2022-12-03T02:56:33.566Z,-3.62
2022-12-03T02:59:05.488Z,-3.62
2022-12-03T03:01:35.178Z,-3.63
2022-12-03T03:04:04.766Z,-3.64
2022-12-03T03:06:33.862Z,-3.63
2022-12-03T03:09:21.192Z,-3.65
2022-12-03T03:11:49.566Z,-3.69
2022-12-03T03:14:17.918Z,-3.70
2022-12-03T03:16:46.379Z,-3.70
2022-12-03T03:19:14.817Z,-3.67
2022-12-03T03:21:43.143Z,-3.64
2022-12-03T03:24:11.430Z,-3.66
2022-12-03T03:26:39.802Z,-3.65
2022-12-03T03:29:08.179Z,-3.64
2022-12-03T03:31:37.007Z,-3.65
2022-12-03T03:34:05.631Z,-3.64
2022-12-03T03:36:34.666Z,-3.64
2022-12-03T03:39:05.513Z,-3.67
2022-12-03T03:41:35.062Z,-3.67
2022-12-03T03:44:06.468Z,-3.69
2022-12-03T03:46:36.223Z,-3.71
2022-12-03T03:49:06.200Z,-3.71
2022-12-03T03:51:36.631Z,-3.67
2022-12-03T03:54:06.198Z,-3.64
2022-12-03T03:56:35.026Z,-3.58
2022-12-03T03:59:04.189Z,-3.56
2022-12-03T04:01:33.294Z,-3.53
2022-12-03T04:04:02.318Z,-3.55
2022-12-03T04:06:30.617Z,-3.56
2022-12-03T04:09:00.150Z,-3.60
2022-12-03T04:11:47.009Z,-3.64
2022-12-03T04:14:15.400Z,-3.62
2022-12-03T04:16:43.743Z,-3.59
2022-12-03T04:19:12.191Z,-3.61
2022-12-03T04:21:58.696Z,-3.64
2022-12-03T04:24:27.076Z,-3.65
2022-12-03T04:27:14.181Z,-3.63
2022-12-03T04:29:42.478Z,-3.57
2022-12-03T04:32:29.132Z,-3.54
2022-12-03T04:35:15.985Z,-3.52
2022-12-03T04:37:44.335Z,-3.54
2022-12-03T04:40:31.779Z,-3.55
2022-12-03T04:43:00.119Z,-3.56
2022-12-03T04:45:28.442Z,-3.52
2022-12-03T04:47:56.678Z,-3.48
2022-12-03T04:50:25.081Z,-3.46
2022-12-03T04:52:53.342Z,-3.49
2022-12-03T04:55:21.619Z,-3.49
2022-12-03T04:57:49.885Z,-3.47
2022-12-03T05:00:18.510Z,-3.42
2022-12-03T05:02:46.995Z,-3.41
2022-12-03T05:05:15.646Z,-3.40
2022-12-03T05:08:08.788Z,-3.42
2022-12-03T05:10:37.165Z,-3.43
2022-12-03T05:13:05.487Z,-3.43
2022-12-03T05:15:33.759Z,-3.43
2022-12-03T05:18:02.102Z,-3.44
2022-12-03T05:20:43.853Z,-3.43
2022-12-03T05:23:15.015Z,-3.41
2022-12-03T05:25:43.386Z,-3.40
2022-12-03T05:28:11.760Z,-3.40
2022-12-03T05:30:40.197Z,-3.39
2022-12-03T05:33:08.548Z,-3.41
2022-12-03T05:35:36.818Z,-3.41
2022-12-03T05:38:05.183Z,-3.41
2022-12-03T05:40:33.539Z,-3.42
2022-12-03T05:43:02.222Z,-3.45
2022-12-03T05:45:36.179Z,-3.47
2022-12-03T05:48:05.504Z,-3.49
2022-12-03T05:50:36.538Z,-3.49
2022-12-03T05:53:05.064Z,-3.48
2022-12-03T05:55:33.939Z,-3.43
2022-12-03T05:58:02.307Z,-3.42
2022-12-03T06:00:39.047Z,-3.47
2022-12-03T06:03:11.120Z,-3.49
2022-12-03T06:05:39.635Z,-3.47
2022-12-03T06:08:08.121Z,-3.45
2022-12-03T06:10:36.570Z,-3.45
2022-12-03T06:13:04.880Z,-3.43
2022-12-03T06:15:35.336Z,-3.42
2022-12-03T06:18:07.182Z,-3.43
2022-12-03T06:20:35.505Z,-3.43
2022-12-03T06:23:03.861Z,-3.43
2022-12-03T06:25:32.173Z,-3.46
2022-12-03T06:28:00.591Z,-3.45
2022-12-03T06:30:28.902Z,-3.44
2022-12-03T06:32:57.203Z,-3.45
2022-12-03T06:35:25.572Z,-3.46
2022-12-03T06:37:53.895Z,-3.44
2022-12-03T06:40:22.240Z,-3.45
2022-12-03T06:42:50.527Z,-3.46
2022-12-03T06:45:18.925Z,-3.46
2022-12-03T06:47:47.264Z,-3.45
2022-12-03T06:50:15.672Z,-3.42
2022-12-03T06:52:43.911Z,-3.41
2022-12-03T06:55:12.281Z,-3.45
2022-12-03T06:57:40.562Z,-3.45
2022-12-03T07:00:09.854Z,-3.45
2022-12-03T07:02:38.281Z,-3.47
2022-12-03T07:05:07.890Z,-3.47
2022-12-03T07:07:36.374Z,-3.44
2022-12-03T07:10:05.381Z,-3.43
2022-12-03T07:12:34.490Z,-3.38
2022-12-03T07:15:02.889Z,-3.33
2022-12-03T07:17:31.306Z,-3.29
2022-12-03T07:19:59.654Z,-3.30
2022-12-03T07:22:27.969Z,-3.31
2022-12-03T07:24:56.469Z,-3.32
2022-12-03T07:27:25.142Z,-3.29
2022-12-03T07:29:53.599Z,-3.26
2022-12-03T07:32:35.626Z,-3.23
2022-12-03T07:35:17.671Z,-3.23
2022-12-03T07:38:00.216Z,-3.24
2022-12-03T07:40:27.364Z,-3.25
2022-12-03T07:42:54.422Z,-3.24
2022-12-03T07:45:22.803Z,-3.21
2022-12-03T07:48:04.883Z,-3.10
2022-12-03T07:50:33.230Z,-3.05
2022-12-03T07:53:01.568Z,-3.03
2022-12-03T07:55:29.907Z,-3.01
2022-12-03T07:57:58.335Z,-2.98
2022-12-03T08:00:26.908Z,-2.98
2022-12-03T08:02:55.322Z,-2.96
2022-12-03T08:05:23.916Z,-2.92
2022-12-03T08:07:52.277Z,-2.89
2022-12-03T08:10:20.763Z,-2.88
2022-12-03T08:12:49.122Z,-2.88
2022-12-03T08:15:24.468Z,-2.85
2022-12-03T08:17:59.036Z,-2.85
2022-12-03T08:20:34.605Z,-2.81
2022-12-03T08:23:07.343Z,-2.72
2022-12-03T08:25:35.598Z,-2.69
2022-12-03T08:28:13.684Z,-2.66
2022-12-03T08:30:44.366Z,-2.54
2022-12-03T08:33:28.286Z,-2.53
2022-12-03T08:35:56.760Z,-2.45
2022-12-03T08:38:25.299Z,-2.35
2022-12-03T08:40:55.647Z,-2.33
2022-12-03T08:43:26.124Z,-2.25
2022-12-03T08:45:56.234Z,-2.11
2022-12-03T08:48:33.277Z,-2.05
2022-12-03T08:51:09.514Z,-1.98
2022-12-03T08:53:47.978Z,-1.96
2022-12-03T08:56:28.571Z,-1.95
2022-12-03T08:59:03.277Z,-1.89
2022-12-03T09:01:33.220Z,-1.85
2022-12-03T09:04:31.068Z,-1.87
2022-12-03T09:07:02.484Z,-1.79
2022-12-03T09:09:31.294Z,-1.74
2022-12-03T09:11:59.759Z,-1.70
2022-12-03T09:14:29.282Z,-1.62
2022-12-03T09:16:57.817Z,-1.58
2022-12-03T09:19:27.839Z,-1.56
2022-12-03T09:21:56.210Z,-1.49
2022-12-03T09:24:24.658Z,-1.52
2022-12-03T09:26:53.039Z,-1.53
2022-12-03T09:29:21.410Z,-1.51
2022-12-03T09:32:03.708Z,-1.54
2022-12-03T09:34:30.800Z,-1.55
2022-12-03T09:36:59.197Z,-1.56
2022-12-03T09:39:27.799Z,-1.58
2022-12-03T09:41:56.639Z,-1.62
2022-12-03T09:44:25.056Z,-1.62
2022-12-03T09:46:53.427Z,-1.70
2022-12-03T09:49:22.028Z,-1.81
2022-12-03T09:51:50.370Z,-1.85
2022-12-03T09:54:24.843Z,-1.80
2022-12-03T09:56:55.272Z,-1.79
2022-12-03T09:59:27.683Z,-1.81
2022-12-03T10:01:56.303Z,-1.79
2022-12-03T10:04:25.347Z,-1.79
2022-12-03T10:06:54.406Z,-1.83
2022-12-03T10:09:26.022Z,-1.88
2022-12-03T10:11:56.828Z,-1.87
2022-12-03T10:14:25.495Z,-1.84
2022-12-03T10:16:54.933Z,-1.85
2022-12-03T10:19:27.895Z,-1.84
2022-12-03T10:21:56.224Z,-1.80
2022-12-03T10:24:36.434Z,-1.78
2022-12-03T10:27:29.746Z,-1.68
2022-12-03T10:30:02.985Z,-1.62
2022-12-03T10:32:43.514Z,-1.57
2022-12-03T10:35:15.547Z,-1.53
2022-12-03T10:38:01.679Z,-1.47
2022-12-03T10:40:31.541Z,-1.51
2022-12-03T10:43:23.308Z,-1.54
2022-12-03T10:46:11.993Z,-1.55
2022-12-03T10:48:41.104Z,-1.54
2022-12-03T10:51:22.529Z,-1.55
2022-12-03T10:53:51.288Z,-1.52
2022-12-03T10:56:26.545Z,-1.57
2022-12-03T10:58:55.553Z,-1.60
2022-12-03T11:01:25.857Z,-1.60
2022-12-03T11:04:01.617Z,-1.59
2022-12-03T11:06:32.064Z,-1.57
2022-12-03T11:09:05.430Z,-1.61
2022-12-03T11:11:36.818Z,-1.62
2022-12-03T11:14:05.772Z,-1.63
2022-12-03T11:16:39.928Z,-1.63
2022-12-03T11:19:18.220Z,-1.64
2022-12-03T11:22:05.228Z,-1.61
2022-12-03T11:24:36.082Z,-1.59
2022-12-03T11:27:04.260Z,-1.57
2022-12-03T11:29:52.622Z,-1.58
2022-12-03T11:32:38.608Z,-1.54
2022-12-03T11:35:26.284Z,-1.50
2022-12-03T11:37:54.773Z,-1.47
2022-12-03T11:40:23.059Z,-1.41
2022-12-03T11:42:51.439Z,-1.37
2022-12-03T11:45:28.566Z,-1.32
2022-12-03T11:47:59.595Z,-1.26
2022-12-03T11:50:39.406Z,-1.27
2022-12-03T11:53:17.834Z,-1.33
2022-12-03T11:55:52.505Z,-1.39
2022-12-03T11:58:30.144Z,-1.38
2022-12-03T12:01:01.017Z,-1.35
2022-12-03T12:03:33.950Z,-1.40
2022-12-03T12:06:12.284Z,-1.42
2022-12-03T12:09:04.129Z,-1.47
2022-12-03T12:11:34.797Z,-1.42
2022-12-03T12:14:05.007Z,-1.41
2022-12-03T12:16:52.689Z,-1.45
2022-12-03T12:19:31.571Z,-1.46
2022-12-03T12:22:18.441Z,-1.48
2022-12-03T12:25:27.189Z,-1.44
2022-12-03T12:27:55.839Z,-1.43
2022-12-03T12:30:24.361Z,-1.49
2022-12-03T12:33:02.105Z,-1.53
2022-12-03T12:35:33.072Z,-1.55
2022-12-03T12:38:11.655Z,-1.57
2022-12-03T12:40:44.931Z,-1.53
2022-12-03T12:43:23.812Z,-1.55
2022-12-03T12:45:55.318Z,-1.61
2022-12-03T12:48:27.543Z,-1.63
2022-12-03T12:51:02.138Z,-1.64
2022-12-03T12:53:35.743Z,-1.63
2022-12-03T12:56:27.474Z,-1.67
2022-12-03T12:58:59.657Z,-1.70
2022-12-03T13:01:32.487Z,-1.69
2022-12-03T13:04:00.890Z,-1.71
2022-12-03T13:06:31.482Z,-1.73
2022-12-03T13:09:01.451Z,-1.74
2022-12-03T13:11:37.450Z,-1.72
2022-12-03T13:14:24.727Z,-1.71
2022-12-03T13:16:56.400Z,-1.70
2022-12-03T13:19:27.597Z,-1.70
2022-12-03T13:21:58.397Z,-1.67
2022-12-03T13:24:36.858Z,-1.65
2022-12-03T13:27:14.101Z,-1.67
2022-12-03T13:29:42.850Z,-1.71
2022-12-03T13:32:19.295Z,-1.69
2022-12-03T13:34:50.716Z,-1.71
2022-12-03T13:37:28.527Z,-1.75
2022-12-03T13:39:58.046Z,-1.78
2022-12-03T13:42:39.939Z,-1.79
2022-12-03T13:45:14.148Z,-1.76
2022-12-03T13:47:43.730Z,-1.77
2022-12-03T13:50:45.171Z,-1.75
2022-12-03T13:53:13.406Z,-1.70
2022-12-03T13:55:47.369Z,-1.76
2022-12-03T13:58:15.599Z,-1.80
2022-12-03T14:00:44.129Z,-1.83
2022-12-03T14:03:12.652Z,-1.84
2022-12-03T14:05:41.009Z,-1.83
2022-12-03T14:08:09.481Z,-1.83
2022-12-03T14:10:37.881Z,-1.81
2022-12-03T14:13:06.215Z,-1.78
2022-12-03T14:15:34.521Z,-1.81
2022-12-03T14:18:02.935Z,-1.83
2022-12-03T14:20:31.276Z,-1.85
2022-12-03T14:22:59.811Z,-1.83
2022-12-03T14:25:28.531Z,-1.78
2022-12-03T14:27:56.899Z,-1.80
2022-12-03T14:30:25.202Z,-1.83
2022-12-03T14:32:53.533Z,-1.84
2022-12-03T14:35:21.891Z,-1.84
2022-12-03T14:37:50.258Z,-1.85
2022-12-03T14:40:21.740Z,-1.87
2022-12-03T14:42:50.743Z,-1.85
2022-12-03T14:45:20.569Z,-1.87
2022-12-03T14:47:48.925Z,-1.89
2022-12-03T14:50:18.676Z,-1.92
2022-12-03T14:52:47.217Z,-1.91
2022-12-03T14:55:15.518Z,-1.91
2022-12-03T14:57:44.029Z,-1.92
2022-12-03T15:00:13.129Z,-1.91
2022-12-03T15:02:41.619Z,-1.92
2022-12-03T15:05:10.484Z,-1.94
2022-12-03T15:07:40.911Z,-1.94
2022-12-03T15:10:09.693Z,-1.95
2022-12-03T15:12:38.038Z,-1.93
2022-12-03T15:15:07.015Z,-1.91
2022-12-03T15:17:35.397Z,-1.88
2022-12-03T15:20:04.426Z,-1.88
2022-12-03T15:22:32.831Z,-1.89
2022-12-03T15:25:02.955Z,-1.90
2022-12-03T15:27:31.449Z,-1.90
2022-12-03T15:29:59.813Z,-1.88
2022-12-03T15:32:28.588Z,-1.84
2022-12-03T15:34:57.833Z,-1.83
2022-12-03T15:37:28.325Z,-1.83
2022-12-03T15:39:57.386Z,-1.85
2022-12-03T15:42:26.147Z,-1.86
2022-12-03T15:44:54.492Z,-1.87
2022-12-03T15:47:24.030Z,-1.89
2022-12-03T15:49:53.459Z,-1.90
2022-12-03T15:52:22.281Z,-1.89
2022-12-03T15:54:50.750Z,-1.88
2022-12-03T15:57:19.409Z,-1.85
2022-12-03T15:59:47.725Z,-1.84
2022-12-03T16:02:16.686Z,-1.85
2022-12-03T16:04:45.980Z,-1.86
2022-12-03T16:07:17.663Z,-1.87
2022-12-03T16:09:47.071Z,-1.87
2022-12-03T16:12:16.007Z,-1.88
2022-12-03T16:14:44.664Z,-1.88
2022-12-03T16:17:14.093Z,-1.88
2022-12-03T16:19:43.198Z,-1.89
2022-12-03T16:22:12.959Z,-1.88
2022-12-03T16:24:41.339Z,-1.86
2022-12-03T16:27:09.769Z,-1.81
2022-12-03T16:29:39.093Z,-1.79
2022-12-03T16:32:10.286Z,-1.77
2022-12-03T16:34:38.948Z,-1.78
2022-12-03T16:37:09.061Z,-1.79
2022-12-03T16:39:38.039Z,-1.78
2022-12-03T16:42:10.418Z,-1.77
2022-12-03T16:45:04.834Z,-1.77
2022-12-03T16:47:34.767Z,-1.76
2022-12-03T16:50:09.128Z,-1.74
2022-12-03T16:52:38.689Z,-1.71
2022-12-03T16:55:07.863Z,-1.73
2022-12-03T16:57:37.275Z,-1.74
2022-12-03T17:00:07.021Z,-1.75
2022-12-03T17:02:35.677Z,-1.76
2022-12-03T17:05:05.271Z,-1.75
2022-12-03T17:07:33.711Z,-1.76
2022-12-03T17:10:02.710Z,-1.76
2022-12-03T17:13:00.768Z,-1.75
2022-12-03T17:15:19.462Z,-1.73
2022-12-03T17:17:47.875Z,-1.71
2022-12-03T17:20:17.751Z,-1.70
2022-12-03T17:22:46.099Z,-1.71
2022-12-03T17:25:14.438Z,-1.70
2022-12-03T17:27:45.578Z,-1.67
2022-12-03T17:30:15.047Z,-1.64
2022-12-03T17:32:43.746Z,-1.65
2022-12-03T17:35:12.504Z,-1.66
2022-12-03T17:37:40.893Z,-1.66
2022-12-03T17:40:13.849Z,-1.66
2022-12-03T17:42:42.263Z,-1.65
2022-12-03T17:45:11.249Z,-1.64
2022-12-03T17:47:40.364Z,-1.63
2022-12-03T17:50:09.214Z,-1.61
2022-12-03T17:52:37.503Z,-1.62
2022-12-03T17:55:12.889Z,-1.64
2022-12-03T17:57:45.928Z,-1.65
2022-12-03T18:00:14.536Z,-1.63
2022-12-03T18:02:43.403Z,-1.63
2022-12-03T18:05:12.234Z,-1.62
2022-12-03T18:07:40.851Z,-1.62
2022-12-03T18:10:09.818Z,-1.62
2022-12-03T18:12:38.604Z,-1.61
2022-12-03T18:15:08.268Z,-1.61
2022-12-03T18:17:37.460Z,-1.61
2022-12-03T18:20:08.103Z,-1.61
2022-12-03T18:22:37.007Z,-1.62
2022-12-03T18:25:06.920Z,-1.61
2022-12-03T18:27:36.091Z,-1.61
2022-12-03T18:30:05.619Z,-1.61
2022-12-03T18:32:34.479Z,-1.62
2022-12-03T18:35:04.702Z,-1.61
2022-12-03T18:37:34.572Z,-1.59
2022-12-03T18:40:13.139Z,-1.56
2022-12-03T18:42:42.369Z,-1.56
2022-12-03T18:45:13.258Z,-1.54
2022-12-03T18:47:42.779Z,-1.54
2022-12-03T18:50:13.588Z,-1.55
2022-12-03T18:52:42.764Z,-1.56
2022-12-03T18:55:18.584Z,-1.55
2022-12-03T18:57:49.225Z,-1.54
2022-12-03T19:00:19.149Z,-1.53
2022-12-03T19:03:03.755Z,-1.53
2022-12-03T19:05:35.745Z,-1.53
2022-12-03T19:08:13.270Z,-1.53
2022-12-03T19:10:46.603Z,-1.52
2022-12-03T19:13:17.070Z,-1.52
2022-12-03T19:15:47.340Z,-1.53
2022-12-03T19:18:16.414Z,-1.53
2022-12-03T19:20:46.037Z,-1.53
2022-12-03T19:23:15.012Z,-1.54
2022-12-03T19:25:55.777Z,-1.53
2022-12-03T19:28:27.296Z,-1.53
2022-12-03T19:31:17.978Z,-1.53
2022-12-03T19:33:47.930Z,-1.51
2022-12-03T19:36:24.867Z,-1.50
2022-12-03T19:39:01.469Z,-1.48
2022-12-03T19:41:34.270Z,-1.46
2022-12-03T19:44:09.268Z,-1.44
2022-12-03T19:46:40.181Z,-1.45
2022-12-03T19:49:12.991Z,-1.44
2022-12-03T19:51:44.600Z,-1.42
2022-12-03T19:54:17.165Z,-1.40
2022-12-03T19:56:50.559Z,-1.38
2022-12-03T19:59:22.421Z,-1.37
2022-12-03T20:01:53.858Z,-1.36
2022-12-03T20:04:23.190Z,-1.34
2022-12-03T20:06:52.282Z,-1.32
2022-12-03T20:09:22.862Z,-1.29
2022-12-03T20:12:01.571Z,-1.27
2022-12-03T20:14:34.661Z,-1.26
2022-12-03T20:17:04.444Z,-1.24
2022-12-03T20:19:33.928Z,-1.24
2022-12-03T20:22:03.219Z,-1.23
2022-12-03T20:24:32.967Z,-1.23
2022-12-03T20:27:02.337Z,-1.22
2022-12-03T20:29:32.880Z,-1.21
2022-12-03T20:32:06.201Z,-1.20
2022-12-03T20:34:36.876Z,-1.18
2022-12-03T20:37:07.136Z,-1.16
2022-12-03T20:39:36.798Z,-1.13
2022-12-03T20:42:06.299Z,-1.11
2022-12-03T20:44:40.274Z,-1.11
2022-12-03T20:47:09.375Z,-1.12
2022-12-03T20:49:39.935Z,-1.11
2022-12-03T20:52:10.255Z,-1.11
2022-12-03T20:54:39.398Z,-1.09
2022-12-03T20:57:08.244Z,-1.10
2022-12-03T20:59:37.919Z,-1.08
2022-12-03T21:02:07.192Z,-1.07
2022-12-03T21:04:36.707Z,-1.05
2022-12-03T21:07:05.485Z,-1.06
2022-12-03T21:09:34.444Z,-1.06
2022-12-03T21:12:02.926Z,-1.04
2022-12-03T21:14:31.296Z,-1.01
2022-12-03T21:17:08.433Z,-0.97
2022-12-03T21:19:38.724Z,-0.93
2022-12-03T21:22:08.765Z,-0.92
2022-12-03T21:24:44.456Z,-0.94
2022-12-03T21:27:21.191Z,-0.95
2022-12-03T21:29:51.837Z,-0.95
2022-12-03T21:32:20.910Z,-0.96
2022-12-03T21:34:49.179Z,-0.94
2022-12-03T21:37:17.962Z,-0.94
2022-12-03T21:39:46.332Z,-0.92
2022-12-03T21:42:36.106Z,-0.91
2022-12-03T21:45:04.056Z,-0.91
2022-12-03T21:47:37.314Z,-0.91
2022-12-03T21:50:09.751Z,-0.91
2022-12-03T21:52:38.293Z,-0.89
2022-12-03T21:55:06.988Z,-0.89
2022-12-03T21:57:36.927Z,-0.89
2022-12-03T22:00:09.745Z,-0.89
2022-12-03T22:02:40.527Z,-0.88
2022-12-03T22:05:11.488Z,-0.88
2022-12-03T22:07:41.007Z,-0.89
2022-12-03T22:10:11.666Z,-0.85
2022-12-03T22:12:42.241Z,-0.83
2022-12-03T22:15:16.724Z,-0.83
2022-12-03T22:17:47.888Z,-0.82
2022-12-03T22:20:16.526Z,-0.80
2022-12-03T22:22:45.198Z,-0.80
2022-12-03T22:25:14.144Z,-0.80
2022-12-03T22:27:42.568Z,-0.79
2022-12-03T22:30:11.225Z,-0.79
2022-12-03T22:32:39.699Z,-0.76
2022-12-03T22:35:08.525Z,-0.74
2022-12-03T22:37:37.042Z,-0.72
2022-12-03T22:40:06.601Z,-0.71
2022-12-03T22:42:34.984Z,-0.69
2022-12-03T22:45:04.134Z,-0.70
2022-12-03T22:47:32.466Z,-0.71
2022-12-03T22:50:00.783Z,-0.71
2022-12-03T22:52:30.344Z,-0.72
2022-12-03T22:54:58.648Z,-0.69
2022-12-03T22:57:27.032Z,-0.67
2022-12-03T22:59:55.613Z,-0.64
2022-12-03T23:02:24.313Z,-0.64
2022-12-03T23:04:56.032Z,-0.64
2022-12-03T23:07:24.320Z,-0.63
2022-12-03T23:09:52.973Z,-0.63
